Sunday, December 8, 2019, 4:39 PM EST
Back to Local

KHVN, Tweed-new Haven Airport

Location: East Haven, CT, United States Lat: 41.267
Local Time: 4:39 PM EST (21:39 GMT) Lon: -72.883
Time Zone: US/Eastern Elev: 13 ft

Show me the last for .
Show Coded

Time T Td Feel RH Dir Speed Gust Alt SLP Vis Weather Sky Remarks
2019-12-08 15:53 39 24 33 54 190° 9 - 30.45 30.45 10 CLR None
2019-12-08 14:53 39 21 34 48 210° 7 - 30.47 30.47 10 CLR None
2019-12-08 13:53 37 21 31 51 170° 8 - 30.47 30.47 10 CLR None
2019-12-08 12:53 38 20 33 47 150° 7 - 30.48 30.48 10 CLR 6-hr Min Temp (1pm): 17.1°F
6-hr Max Temp (1pm): 37.9°F
2019-12-08 11:53 35 20 30 53 150° 6 - 30.51 30.51 10 CLR None
2019-12-08 10:53 35 16 32 45 Variable 3 - 30.53 30.53 10 CLR None
2019-12-08 09:53 32 18 - 55 - Calm - 30.56 30.55 10 CLR None
2019-12-08 08:53 27 18 - 68 - Calm - 30.56 30.55 10 CLR None
2019-12-08 07:53 21 17 - 84 - Calm - 30.56 30.55 10 CLR None
2019-12-08 06:53 18 12 - 77 - Calm - 30.55 30.55 10 CLR 6-hr Min Temp (7am): 17.1°F
6-hr Max Temp (7am): 27.0°F
2019-12-08 05:53 19 12 - 73 - Calm - 30.54 30.53 10 CLR None
2019-12-08 04:53 17 12 - 80 - Calm - 30.52 30.52 10 CLR None
2019-12-08 03:53 17 11 - 76 - Calm - 30.52 30.52 10 CLR None
2019-12-08 02:53 20 13 - 73 - Calm - 30.53 30.53 10 CLR None
2019-12-08 00:53 23 12 18 62 40° 3 - 30.51 30.50 10 CLR 6-hr Min Temp (1am): 21.0°F
6-hr Max Temp (1am): 34.0°F
2019-12-07 23:53 25 13 - 59 - Calm - 30.51 30.51 10 CLR 24-hr Min Temp (12am): 24.1°F
24-hr Max Temp (12am): 39.9°F
2019-12-07 22:53 27 14 23 57 10° 3 - 30.50 30.50 10 CLR None
2019-12-07 21:53 28 14 23 55 350° 5 - 30.49 30.49 10 CLR None
2019-12-07 20:53 28 15 22 57 360° 6 - 30.47 30.47 10 CLR None
2019-12-07 19:53 31 15 26 51 350° 5 - 30.45 30.45 10 CLR None
2019-12-07 18:53 34 15 28 45 340° 7 - 30.44 30.43 10 CLR 6-hr Min Temp (7pm): 33.1°F
6-hr Max Temp (7pm): 39.9°F
2019-12-07 17:53 35 15 31 43 330° 5 - 30.41 30.41 10 CLR None
2019-12-07 16:53 37 15 30 40 330° 9 - 30.38 30.38 10 CLR None

Support USWX by starting your Amazon purchase here.